createdAt,value
2023-01-17T00:02:01.030Z,77.28
2023-01-17T00:04:47.002Z,77.68
2023-01-17T00:07:36.388Z,77.15
2023-01-17T00:10:07.402Z,77.80
2023-01-17T00:12:35.196Z,77.57
2023-01-17T00:15:02.356Z,76.95
2023-01-17T00:17:30.264Z,78.32
2023-01-17T00:20:15.758Z,76.95
2023-01-17T00:23:02.946Z,77.47
2023-01-17T00:25:52.691Z,77.30
2023-01-17T00:28:19.935Z,77.10
2023-01-17T00:30:47.091Z,76.78
2023-01-17T00:33:14.060Z,78.22
2023-01-17T00:35:40.950Z,77.10
2023-01-17T00:38:10.822Z,77.90
2023-01-17T00:40:39.518Z,77.28
2023-01-17T00:43:26.896Z,76.82
2023-01-17T00:46:13.100Z,77.70
2023-01-17T00:48:58.630Z,77.68
2023-01-17T00:51:45.321Z,77.03
2023-01-17T00:54:33.041Z,76.88
2023-01-17T00:57:18.659Z,77.25
2023-01-17T01:00:04.602Z,78.63
2023-01-17T01:02:51.129Z,76.63
2023-01-17T01:05:37.111Z,76.75
2023-01-17T01:08:22.852Z,77.18
2023-01-17T01:11:09.913Z,77.15
2023-01-17T01:13:55.223Z,77.00
2023-01-17T01:16:40.413Z,76.85
2023-01-17T01:19:25.740Z,77.47
2023-01-17T01:22:11.192Z,78.22
2023-01-17T01:24:56.485Z,77.15
2023-01-17T01:27:43.707Z,77.38
2023-01-17T01:30:30.185Z,77.60
2023-01-17T01:33:15.484Z,77.53
2023-01-17T01:35:43.107Z,77.00
2023-01-17T01:38:10.027Z,76.90
2023-01-17T01:40:42.615Z,76.75
2023-01-17T01:43:13.270Z,76.80
2023-01-17T01:45:40.681Z,77.05
2023-01-17T01:48:23.687Z,77.68
2023-01-17T01:50:51.102Z,77.15
2023-01-17T01:53:20.216Z,77.35
2023-01-17T01:55:49.567Z,78.22
2023-01-17T01:58:22.181Z,78.00
2023-01-17T02:00:49.537Z,77.70
2023-01-17T02:03:20.206Z,77.95
2023-01-17T02:05:47.499Z,76.83
2023-01-17T02:08:17.462Z,77.13
2023-01-17T02:10:44.352Z,78.07
2023-01-17T02:13:13.184Z,77.10
2023-01-17T02:15:51.727Z,77.07
2023-01-17T02:18:30.882Z,76.85
2023-01-17T02:21:12.697Z,77.00
2023-01-17T02:24:22.894Z,77.18
2023-01-17T02:26:58.675Z,76.88
2023-01-17T02:30:18.861Z,76.72
2023-01-17T02:32:55.875Z,76.40
2023-01-17T02:35:30.839Z,76.78
2023-01-17T02:38:08.567Z,76.28
2023-01-17T02:40:41.462Z,76.80
2023-01-17T02:43:12.069Z,77.93
2023-01-17T02:45:39.050Z,76.40
2023-01-17T02:48:10.924Z,76.57
2023-01-17T02:50:53.055Z,77.22
2023-01-17T02:53:42.353Z,77.15
2023-01-17T02:56:24.266Z,76.88
2023-01-17T02:59:06.493Z,77.63
2023-01-17T03:01:40.976Z,76.75
2023-01-17T03:04:15.138Z,77.10
2023-01-17T03:06:47.132Z,77.05
2023-01-17T03:09:16.098Z,76.45
2023-01-17T03:11:43.456Z,76.68
2023-01-17T03:14:10.319Z,76.75
2023-01-17T03:16:37.362Z,76.90
2023-01-17T03:19:04.548Z,76.93
2023-01-17T03:21:32.878Z,76.40
2023-01-17T03:23:59.784Z,76.82
2023-01-17T03:26:26.740Z,77.22
2023-01-17T03:28:53.716Z,76.32
2023-01-17T03:31:20.608Z,77.20
2023-01-17T03:33:47.548Z,76.45
2023-01-17T03:36:14.741Z,76.50
2023-01-17T03:38:43.042Z,76.40
2023-01-17T03:41:09.984Z,77.22
2023-01-17T03:43:36.870Z,76.50
2023-01-17T03:46:04.875Z,76.80
2023-01-17T03:48:31.891Z,76.70
2023-01-17T03:50:59.299Z,76.82
2023-01-17T03:53:26.587Z,77.15
2023-01-17T03:55:54.800Z,76.20
2023-01-17T03:58:21.767Z,76.88
2023-01-17T04:00:48.784Z,76.35
2023-01-17T04:03:15.722Z,77.50
2023-01-17T04:05:42.662Z,76.55
2023-01-17T04:08:09.621Z,76.65
2023-01-17T04:10:36.468Z,77.07
2023-01-17T04:13:04.865Z,77.05
2023-01-17T04:15:32.798Z,77.05
2023-01-17T04:17:59.785Z,76.40
2023-01-17T04:20:32.006Z,76.53
2023-01-17T04:22:59.133Z,76.95
2023-01-17T04:25:26.155Z,76.93
2023-01-17T04:27:53.209Z,76.60
2023-01-17T04:30:21.777Z,76.32
2023-01-17T04:32:48.749Z,76.25
2023-01-17T04:35:15.659Z,76.45
2023-01-17T04:37:42.855Z,76.15
2023-01-17T04:40:11.406Z,76.30
2023-01-17T04:42:38.542Z,77.05
2023-01-17T04:45:06.777Z,77.22
2023-01-17T04:47:35.036Z,76.82
2023-01-17T04:50:01.957Z,76.80
2023-01-17T04:52:28.860Z,76.55
2023-01-17T04:54:55.777Z,78.45
2023-01-17T04:57:22.650Z,75.97
2023-01-17T04:59:49.544Z,76.57
2023-01-17T05:02:16.640Z,76.22
2023-01-17T05:04:45.014Z,76.85
2023-01-17T05:07:11.879Z,76.50
2023-01-17T05:09:38.955Z,76.47
2023-01-17T05:12:06.006Z,77.85
2023-01-17T05:14:34.391Z,76.72
2023-01-17T05:17:03.128Z,76.63
2023-01-17T05:19:30.125Z,77.05
2023-01-17T05:22:04.029Z,76.80
2023-01-17T05:24:31.668Z,76.45
2023-01-17T05:27:03.023Z,77.05
2023-01-17T05:31:57.588Z,76.00
2023-01-17T05:34:24.795Z,76.25
2023-01-17T05:36:51.731Z,76.35
2023-01-17T05:39:20.015Z,76.50
2023-01-17T05:41:46.918Z,77.03
2023-01-17T05:44:15.341Z,77.00
2023-01-17T05:46:42.452Z,76.97
2023-01-17T05:49:09.453Z,76.63
2023-01-17T05:51:37.955Z,77.40
2023-01-17T05:54:05.287Z,76.88
2023-01-17T05:56:33.931Z,76.68
2023-01-17T05:59:00.874Z,77.47
2023-01-17T06:01:27.837Z,77.20
2023-01-17T06:03:54.804Z,76.88
2023-01-17T06:06:21.953Z,76.28
2023-01-17T06:08:48.893Z,76.95
2023-01-17T06:11:15.936Z,77.05
2023-01-17T06:13:44.184Z,76.85
2023-01-17T06:16:11.243Z,77.72
2023-01-17T06:18:38.243Z,76.97
2023-01-17T06:21:05.392Z,77.55
2023-01-17T06:23:32.390Z,77.43
2023-01-17T06:26:03.549Z,77.10
2023-01-17T06:28:30.591Z,77.10
2023-01-17T06:30:59.991Z,77.60
2023-01-17T06:33:27.066Z,77.82
2023-01-17T06:35:54.116Z,77.53
2023-01-17T06:38:21.326Z,77.60
2023-01-17T06:40:48.581Z,77.60
2023-01-17T06:43:15.888Z,77.00
2023-01-17T06:45:42.794Z,77.90
2023-01-17T06:48:11.253Z,77.57
2023-01-17T06:50:38.237Z,78.60
2023-01-17T06:53:06.806Z,78.53
2023-01-17T06:55:35.484Z,77.50
2023-01-17T06:58:03.343Z,77.40
2023-01-17T07:00:31.532Z,78.43
2023-01-17T07:02:58.550Z,78.30
2023-01-17T07:05:28.498Z,77.95
2023-01-17T07:07:55.693Z,78.05
2023-01-17T07:10:23.639Z,78.47
2023-01-17T07:12:51.467Z,78.13
2023-01-17T07:15:18.527Z,78.22
2023-01-17T07:17:45.735Z,78.97
2023-01-17T07:20:13.599Z,78.32
2023-01-17T07:22:45.099Z,77.85
2023-01-17T07:25:12.049Z,78.40
2023-01-17T07:27:38.894Z,77.22
2023-01-17T07:30:07.026Z,78.10
2023-01-17T07:32:33.889Z,78.10
2023-01-17T07:35:00.842Z,78.18
2023-01-17T07:37:27.702Z,78.22
2023-01-17T07:39:56.176Z,78.15
2023-01-17T07:42:24.395Z,77.70
2023-01-17T07:44:51.458Z,78.68
2023-01-17T07:47:18.394Z,77.38
2023-01-17T07:49:45.386Z,77.15
2023-01-17T07:52:12.356Z,77.75
2023-01-17T07:54:39.312Z,77.50
2023-01-17T07:57:11.848Z,78.80
2023-01-17T07:59:38.777Z,77.53
2023-01-17T08:02:06.079Z,77.97
2023-01-17T08:04:35.264Z,78.38
2023-01-17T08:07:02.494Z,78.53
2023-01-17T08:09:29.553Z,78.15
2023-01-17T08:11:56.593Z,77.32
2023-01-17T08:14:25.249Z,77.13
2023-01-17T08:16:52.291Z,77.82
2023-01-17T08:19:19.254Z,77.65
2023-01-17T08:21:46.266Z,78.80
2023-01-17T08:24:13.832Z,78.53
2023-01-17T08:26:40.862Z,77.85
2023-01-17T08:29:07.986Z,80.35
2023-01-17T08:31:36.737Z,78.55
2023-01-17T08:34:03.944Z,78.40
2023-01-17T08:36:31.333Z,77.65
2023-01-17T08:38:59.024Z,78.93
2023-01-17T08:41:27.864Z,77.53
2023-01-17T08:43:54.855Z,77.43
2023-01-17T08:46:22.506Z,77.78
2023-01-17T08:48:53.884Z,77.22
2023-01-17T08:53:48.609Z,77.60
2023-01-17T08:56:15.617Z,78.43
2023-01-17T08:58:42.546Z,77.40
2023-01-17T09:01:09.553Z,77.32
2023-01-17T09:03:38.351Z,77.30
2023-01-17T09:06:10.765Z,77.47
2023-01-17T09:08:37.919Z,76.72
2023-01-17T09:11:05.874Z,79.80
2023-01-17T09:13:32.910Z,77.03
2023-01-17T09:16:00.878Z,78.15
2023-01-17T09:18:29.422Z,77.20
2023-01-17T09:20:59.258Z,77.43
2023-01-17T09:23:29.792Z,77.35
2023-01-17T09:25:59.236Z,76.97
2023-01-17T09:28:27.157Z,76.45
2023-01-17T09:30:54.878Z,77.38
2023-01-17T09:33:24.425Z,77.00
2023-01-17T09:35:51.365Z,77.78
2023-01-17T09:38:18.303Z,78.05
2023-01-17T09:40:48.480Z,77.43
2023-01-17T09:43:21.681Z,77.35
2023-01-17T09:45:49.026Z,77.57
2023-01-17T09:48:23.597Z,77.07
2023-01-17T09:50:57.819Z,77.80
2023-01-17T09:53:24.845Z,77.18
2023-01-17T09:55:58.576Z,78.10
2023-01-17T09:58:34.999Z,77.65
2023-01-17T10:01:10.130Z,76.88
2023-01-17T10:03:43.827Z,79.07
2023-01-17T10:06:22.355Z,77.75
2023-01-17T10:09:03.903Z,77.90
2023-01-17T10:14:29.276Z,77.20
2023-01-17T10:17:06.813Z,77.45
2023-01-17T10:19:53.479Z,77.55
2023-01-17T10:22:48.768Z,77.95
2023-01-17T10:25:28.344Z,79.32
2023-01-17T10:27:58.945Z,78.75
2023-01-17T10:30:33.663Z,79.07
2023-01-17T10:33:04.273Z,78.15
2023-01-17T10:35:36.956Z,78.53
2023-01-17T10:38:07.560Z,78.63
2023-01-17T10:40:42.804Z,78.80
2023-01-17T10:43:18.778Z,78.40
2023-01-17T10:45:51.940Z,78.60
2023-01-17T10:48:29.664Z,78.32
2023-01-17T10:51:01.694Z,78.38
2023-01-17T10:53:43.548Z,78.38
2023-01-17T10:56:14.214Z,78.68
2023-01-17T10:58:42.621Z,80.13
2023-01-17T11:01:17.814Z,79.40
2023-01-17T11:03:49.908Z,78.43
2023-01-17T11:06:21.985Z,78.28
2023-01-17T11:08:54.284Z,79.50
2023-01-17T11:11:24.153Z,78.90
2023-01-17T11:13:54.879Z,78.70
2023-01-17T11:16:26.724Z,81.55
2023-01-17T11:19:08.965Z,78.00
2023-01-17T11:21:39.448Z,80.13
2023-01-17T11:24:11.751Z,78.00
2023-01-17T11:26:47.306Z,78.63
2023-01-17T11:29:25.670Z,79.57
2023-01-17T11:31:52.845Z,78.97
2023-01-17T11:34:24.066Z,78.63
2023-01-17T11:37:08.692Z,80.18
2023-01-17T11:39:35.672Z,79.63
2023-01-17T11:42:06.251Z,78.50
2023-01-17T11:44:36.069Z,78.50
2023-01-17T11:47:17.020Z,78.82
2023-01-17T11:49:45.706Z,78.78
2023-01-17T11:52:22.204Z,79.20
2023-01-17T11:54:50.855Z,78.70
2023-01-17T11:57:22.765Z,78.50
2023-01-17T11:59:55.910Z,78.15
2023-01-17T12:02:41.118Z,79.07
2023-01-17T12:05:31.545Z,78.45
2023-01-17T12:08:09.454Z,79.07
2023-01-17T12:10:47.893Z,78.47
2023-01-17T12:13:42.632Z,78.63
2023-01-17T12:16:31.167Z,78.22
2023-01-17T12:19:12.885Z,78.45
2023-01-17T12:21:51.519Z,78.90
2023-01-17T12:24:44.579Z,78.30
2023-01-17T12:27:19.418Z,78.38
2023-01-17T12:30:03.218Z,78.13
2023-01-17T12:32:48.889Z,79.40
2023-01-17T12:35:20.103Z,78.88
2023-01-17T12:38:03.859Z,77.95
2023-01-17T12:40:35.538Z,77.88
2023-01-17T12:43:12.407Z,78.20
2023-01-17T12:45:43.797Z,78.63
2023-01-17T12:50:43.700Z,79.72
2023-01-17T12:53:19.659Z,77.47
2023-01-17T12:55:53.159Z,79.40
2023-01-17T12:58:26.489Z,78.32
2023-01-17T13:01:00.532Z,78.45
2023-01-17T13:03:40.444Z,78.07
2023-01-17T13:06:07.758Z,78.70
2023-01-17T13:08:41.369Z,78.30
2023-01-17T13:11:17.232Z,78.28
2023-01-17T13:13:44.135Z,78.60
2023-01-17T13:16:14.635Z,78.53
2023-01-17T13:18:46.310Z,79.55
2023-01-17T13:21:30.143Z,78.75
2023-01-17T13:24:32.801Z,78.57
2023-01-17T13:27:22.536Z,78.25
2023-01-17T13:30:01.771Z,78.30
2023-01-17T13:32:55.223Z,78.03
2023-01-17T13:35:42.029Z,77.53
2023-01-17T13:38:21.460Z,77.50
2023-01-17T13:40:54.155Z,78.63
2023-01-17T13:43:25.881Z,78.82
2023-01-17T13:45:54.962Z,77.90
2023-01-17T13:48:31.226Z,79.15
2023-01-17T13:51:02.282Z,78.75
2023-01-17T13:53:56.882Z,78.53
2023-01-17T13:56:29.787Z,78.43
2023-01-17T13:59:02.562Z,78.20
2023-01-17T14:01:54.757Z,78.25
2023-01-17T14:04:23.466Z,77.47
2023-01-17T14:06:57.897Z,78.25
2023-01-17T14:09:36.615Z,79.30
2023-01-17T14:12:25.414Z,78.32
2023-01-17T14:14:56.661Z,77.63
2023-01-17T14:17:48.336Z,78.22
2023-01-17T14:20:48.611Z,77.93
2023-01-17T14:23:26.235Z,78.05
2023-01-17T14:25:53.615Z,78.40
2023-01-17T14:28:24.130Z,77.75
2023-01-17T14:30:56.046Z,77.97
2023-01-17T14:33:28.879Z,77.90
2023-01-17T14:35:58.026Z,78.43
2023-01-17T14:38:28.211Z,77.93
2023-01-17T14:40:57.109Z,78.00
2023-01-17T14:43:26.545Z,77.63
2023-01-17T14:45:59.004Z,78.10
2023-01-17T14:48:26.650Z,78.20
2023-01-17T14:50:55.064Z,77.90
2023-01-17T14:53:26.042Z,78.63
2023-01-17T14:55:59.981Z,79.18
2023-01-17T14:58:29.178Z,79.07
2023-01-17T15:01:00.022Z,77.90
2023-01-17T15:03:27.948Z,77.82
2023-01-17T15:05:57.638Z,78.43
2023-01-17T15:08:30.849Z,78.82
2023-01-17T15:11:05.243Z,78.72
2023-01-17T15:13:43.890Z,78.18
2023-01-17T15:16:19.121Z,77.85
2023-01-17T15:18:46.423Z,78.60
2023-01-17T15:21:17.310Z,78.93
2023-01-17T15:23:47.507Z,78.57
2023-01-17T15:26:18.499Z,78.53
2023-01-17T15:28:46.031Z,79.07
2023-01-17T15:31:15.515Z,78.78
2023-01-17T15:33:45.637Z,78.97
2023-01-17T15:36:33.154Z,79.18
2023-01-17T15:39:01.664Z,78.95
2023-01-17T15:41:32.489Z,78.43
2023-01-17T15:43:59.757Z,78.50
2023-01-17T15:46:32.427Z,78.18
2023-01-17T15:49:07.610Z,78.97
2023-01-17T15:51:37.823Z,78.90
2023-01-17T15:54:24.093Z,78.72
2023-01-17T15:57:06.273Z,78.63
2023-01-17T15:59:51.193Z,78.28
2023-01-17T16:02:31.255Z,78.55
2023-01-17T16:04:58.998Z,78.78
2023-01-17T16:07:34.071Z,78.80
2023-01-17T16:10:13.742Z,78.78
2023-01-17T16:12:42.850Z,78.40
2023-01-17T16:15:13.275Z,78.43
2023-01-17T16:17:42.352Z,78.95
2023-01-17T16:20:15.946Z,78.13
2023-01-17T16:22:43.779Z,79.75
2023-01-17T16:25:15.677Z,78.28
2023-01-17T16:27:44.642Z,78.68
2023-01-17T16:30:17.110Z,77.70
2023-01-17T16:32:56.555Z,78.45
2023-01-17T16:35:26.255Z,78.07
2023-01-17T16:37:54.829Z,78.80
2023-01-17T16:40:23.576Z,78.18
2023-01-17T16:42:52.059Z,78.45
2023-01-17T16:45:19.183Z,78.60
2023-01-17T16:47:47.689Z,78.75
2023-01-17T16:50:16.622Z,78.25
2023-01-17T16:52:43.497Z,78.22
2023-01-17T16:55:13.865Z,78.75
2023-01-17T16:57:41.821Z,78.57
2023-01-17T17:00:12.530Z,79.13
2023-01-17T17:02:40.757Z,78.45
2023-01-17T17:05:09.504Z,78.75
2023-01-17T17:07:42.675Z,78.10
2023-01-17T17:10:10.745Z,78.32
2023-01-17T17:12:37.652Z,77.75
2023-01-17T17:15:05.495Z,77.55
2023-01-17T17:17:36.130Z,77.80
2023-01-17T17:20:03.276Z,78.90
2023-01-17T17:22:30.142Z,79.03
2023-01-17T17:24:57.129Z,79.32
2023-01-17T17:27:26.544Z,78.32
2023-01-17T17:29:53.437Z,78.28
2023-01-17T17:32:21.110Z,77.75
2023-01-17T17:34:52.465Z,78.05
2023-01-17T17:39:46.080Z,79.05
2023-01-17T17:42:13.206Z,78.65
2023-01-17T17:44:40.094Z,78.28
2023-01-17T17:47:07.002Z,78.63
2023-01-17T17:49:33.932Z,78.97
2023-01-17T17:52:05.523Z,78.22
2023-01-17T17:54:32.714Z,78.72
2023-01-17T17:56:59.936Z,77.85
2023-01-17T17:59:27.153Z,80.32
2023-01-17T18:01:54.092Z,79.25
2023-01-17T18:04:22.042Z,78.22
2023-01-17T18:06:49.003Z,79.63
2023-01-17T18:09:17.728Z,78.75
2023-01-17T18:11:44.797Z,78.70
2023-01-17T18:14:14.143Z,78.70
2023-01-17T18:16:43.080Z,78.85
2023-01-17T18:19:14.487Z,80.13
2023-01-17T18:24:11.037Z,79.07
2023-01-17T18:26:40.777Z,79.22
2023-01-17T18:29:10.477Z,79.38
2023-01-17T18:31:37.545Z,79.00
2023-01-17T18:34:07.033Z,78.07
2023-01-17T18:36:34.896Z,80.45
2023-01-17T18:39:02.996Z,79.07
2023-01-17T18:41:31.299Z,78.47
2023-01-17T18:43:59.601Z,78.18
2023-01-17T18:46:26.886Z,78.60
2023-01-17T18:48:56.185Z,79.28
2023-01-17T18:51:23.305Z,78.63
2023-01-17T18:53:50.273Z,77.80
2023-01-17T18:56:20.148Z,80.15
2023-01-17T18:58:48.910Z,79.35
2023-01-17T19:01:19.220Z,78.25
2023-01-17T19:03:48.043Z,80.80
2023-01-17T19:06:17.351Z,78.38
2023-01-17T19:08:45.065Z,80.35
2023-01-17T19:11:12.431Z,80.20
2023-01-17T19:13:41.826Z,80.10
2023-01-17T19:16:13.148Z,78.68
2023-01-17T19:21:10.944Z,77.88
2023-01-17T19:23:37.899Z,79.00
2023-01-17T19:26:08.359Z,78.60
2023-01-17T19:28:37.689Z,78.07
2023-01-17T19:31:06.239Z,78.53
2023-01-17T19:33:34.555Z,79.55
2023-01-17T19:36:05.817Z,78.38
2023-01-17T19:38:34.601Z,78.32
2023-01-17T19:41:07.465Z,78.25
2023-01-17T19:43:34.437Z,78.13
2023-01-17T19:46:01.405Z,78.75
2023-01-17T19:48:29.034Z,81.55
2023-01-17T19:50:56.385Z,78.78
2023-01-17T19:53:24.759Z,78.32
2023-01-17T19:55:51.667Z,78.63
2023-01-17T19:58:18.609Z,78.78
2023-01-17T20:00:46.690Z,78.50
2023-01-17T20:03:13.891Z,78.18
2023-01-17T20:05:40.780Z,78.70
2023-01-17T20:08:09.799Z,78.40
2023-01-17T20:10:38.049Z,78.63
2023-01-17T20:13:04.920Z,79.00
2023-01-17T20:15:31.858Z,78.63
2023-01-17T20:17:59.514Z,79.78
2023-01-17T20:20:26.539Z,79.65
2023-01-17T20:22:53.744Z,78.43
2023-01-17T20:25:20.694Z,78.68
2023-01-17T20:27:48.968Z,78.43
2023-01-17T20:30:20.549Z,78.25
2023-01-17T20:32:47.982Z,78.97
2023-01-17T20:35:16.042Z,78.93
2023-01-17T20:37:42.911Z,79.43
2023-01-17T20:40:12.224Z,79.60
2023-01-17T20:42:39.122Z,78.20
2023-01-17T20:45:08.987Z,79.47
2023-01-17T20:47:35.890Z,79.45
2023-01-17T20:50:04.031Z,78.13
2023-01-17T20:52:31.080Z,79.07
2023-01-17T20:54:57.998Z,78.28
2023-01-17T20:57:24.813Z,78.85
2023-01-17T20:59:52.374Z,77.97
2023-01-17T21:02:20.849Z,78.03
2023-01-17T21:04:47.793Z,78.22
2023-01-17T21:07:14.668Z,78.50
2023-01-17T21:09:42.917Z,78.40
2023-01-17T21:12:09.812Z,77.93
2023-01-17T21:14:37.637Z,77.75
2023-01-17T21:17:04.561Z,78.03
2023-01-17T21:19:32.851Z,79.70
2023-01-17T21:22:00.114Z,78.25
2023-01-17T21:24:28.693Z,78.70
2023-01-17T21:26:56.933Z,77.88
2023-01-17T21:29:29.224Z,78.25
2023-01-17T21:31:56.382Z,77.63
2023-01-17T21:34:25.367Z,79.25
2023-01-17T21:36:53.892Z,78.07
2023-01-17T21:39:20.794Z,77.68
2023-01-17T21:41:49.657Z,77.68
2023-01-17T21:44:19.702Z,77.65
2023-01-17T21:46:47.467Z,79.00
2023-01-17T21:49:14.729Z,78.05
2023-01-17T21:51:54.366Z,78.28
2023-01-17T21:54:44.779Z,77.82
2023-01-17T21:57:31.360Z,78.18
2023-01-17T21:59:58.356Z,78.03
2023-01-17T22:02:25.299Z,77.22
2023-01-17T22:04:54.496Z,77.80
2023-01-17T22:07:21.413Z,77.18
2023-01-17T22:09:49.883Z,77.72
2023-01-17T22:12:16.798Z,78.43
2023-01-17T22:14:43.672Z,78.07
2023-01-17T22:17:10.642Z,78.78
2023-01-17T22:19:37.551Z,77.82
2023-01-17T22:22:04.450Z,78.50
2023-01-17T22:24:31.389Z,78.07
2023-01-17T22:26:59.683Z,77.78
2023-01-17T22:29:26.993Z,77.72
2023-01-17T22:31:53.924Z,77.43
2023-01-17T22:34:20.890Z,77.90
2023-01-17T22:36:48.876Z,77.75
2023-01-17T22:39:15.839Z,77.93
2023-01-17T22:41:42.718Z,77.82
2023-01-17T22:44:11.276Z,79.13
2023-01-17T22:46:39.214Z,77.35
2023-01-17T22:49:08.431Z,78.05
2023-01-17T22:51:35.732Z,78.28
2023-01-17T22:54:02.801Z,77.38
2023-01-17T22:56:32.168Z,78.68
2023-01-17T22:59:00.816Z,77.32
2023-01-17T23:01:31.339Z,77.15
2023-01-17T23:04:00.622Z,77.60
2023-01-17T23:06:30.403Z,78.72
2023-01-17T23:09:00.171Z,78.20
2023-01-17T23:11:41.153Z,77.55
2023-01-17T23:14:11.642Z,77.60
2023-01-17T23:17:02.000Z,77.35
2023-01-17T23:19:32.374Z,78.28
2023-01-17T23:22:16.404Z,77.88
2023-01-17T23:24:45.415Z,77.45
2023-01-17T23:27:32.856Z,77.28
2023-01-17T23:29:59.982Z,77.85
2023-01-17T23:32:28.903Z,78.10
2023-01-17T23:34:55.896Z,77.25
2023-01-17T23:37:46.884Z,77.63
2023-01-17T23:40:14.073Z,77.13
2023-01-17T23:42:59.883Z,77.20
2023-01-17T23:45:27.188Z,77.38
2023-01-17T23:47:55.922Z,78.05
2023-01-17T23:50:22.965Z,77.40
2023-01-17T23:52:49.811Z,77.68
2023-01-17T23:55:16.907Z,78.63
2023-01-17T23:57:43.970Z,77.43
